createdAt,value
2022-08-30T00:03:07.277Z,23.57
2022-08-30T00:08:11.510Z,22.53
2022-08-30T00:13:15.254Z,21.55
2022-08-30T00:18:20.932Z,22.97
2022-08-30T00:23:28.068Z,23.33
2022-08-30T00:28:34.358Z,21.46
2022-08-30T00:33:37.646Z,21.42
2022-08-30T00:38:40.867Z,22.95
2022-08-30T00:43:44.272Z,23.11
2022-08-30T00:48:50.137Z,21.67
2022-08-30T00:53:56.972Z,22.91
2022-08-30T00:59:03.793Z,23.01
2022-08-30T01:04:09.991Z,21.29
2022-08-30T01:09:14.571Z,21.94
2022-08-30T01:14:18.948Z,23.23
2022-08-30T01:19:49.912Z,22.94
2022-08-30T01:24:57.952Z,21.69
2022-08-30T01:30:02.913Z,23.07
2022-08-30T01:35:07.681Z,23.06
2022-08-30T01:40:14.000Z,21.07
2022-08-30T01:45:17.602Z,20.96
2022-08-30T01:50:20.986Z,22.81
2022-08-30T01:55:24.687Z,23.37
2022-08-30T02:00:27.922Z,21.71
2022-08-30T02:05:31.548Z,21.52
2022-08-30T02:10:34.928Z,23.01
2022-08-30T02:15:41.535Z,23.65
2022-08-30T02:20:45.548Z,22.39
2022-08-30T02:25:48.653Z,21.42
2022-08-30T02:30:53.803Z,22.77
2022-08-30T02:35:57.117Z,23.18
2022-08-30T02:41:00.857Z,21.72
2022-08-30T02:46:04.825Z,21.21
2022-08-30T02:51:12.895Z,22.70
2022-08-30T02:56:16.508Z,22.90
2022-08-30T03:01:19.847Z,21.13
2022-08-30T03:06:23.156Z,22.03
2022-08-30T03:11:27.051Z,22.85
2022-08-30T03:16:30.391Z,23.24
2022-08-30T03:21:33.573Z,23.27
2022-08-30T03:26:36.982Z,23.29
2022-08-30T03:31:40.728Z,23.18
2022-08-30T03:36:57.229Z,23.39
2022-08-30T03:42:00.755Z,23.67
2022-08-30T03:47:06.099Z,23.02
2022-08-30T03:52:09.341Z,21.71
2022-08-30T03:57:13.413Z,22.22
2022-08-30T04:02:24.121Z,22.40
2022-08-30T04:07:27.434Z,22.67
2022-08-30T04:12:30.642Z,22.70
2022-08-30T04:17:34.156Z,22.89
2022-08-30T04:22:37.936Z,23.01
2022-08-30T04:27:40.983Z,23.19
2022-08-30T04:32:45.515Z,23.36
2022-08-30T04:37:48.733Z,23.48
2022-08-30T04:42:54.812Z,23.40
2022-08-30T04:47:58.025Z,23.50
2022-08-30T04:53:01.237Z,23.58
2022-08-30T04:58:06.175Z,23.73
2022-08-30T05:03:10.233Z,23.70
2022-08-30T05:08:20.110Z,23.66
2022-08-30T05:13:35.311Z,23.57
2022-08-30T05:18:40.337Z,23.56
2022-08-30T05:23:44.851Z,23.39
2022-08-30T05:28:49.657Z,23.14
2022-08-30T05:33:55.498Z,22.90
2022-08-30T05:39:00.642Z,22.69
2022-08-30T05:44:07.871Z,22.53
2022-08-30T05:49:11.029Z,22.73
2022-08-30T05:54:16.114Z,22.83
2022-08-30T05:59:19.408Z,22.72
2022-08-30T06:04:22.712Z,22.86
2022-08-30T06:09:25.909Z,22.93
2022-08-30T06:14:29.135Z,23.01
2022-08-30T06:19:32.429Z,22.85
2022-08-30T06:24:56.409Z,22.92
2022-08-30T06:29:59.662Z,23.07
2022-08-30T06:35:04.848Z,23.05
2022-08-30T06:40:09.638Z,23.01
2022-08-30T06:45:12.944Z,22.77
2022-08-30T06:50:18.538Z,22.96
2022-08-30T06:55:22.229Z,22.90
2022-08-30T07:00:25.669Z,22.89
2022-08-30T07:05:29.365Z,22.98
2022-08-30T07:10:32.574Z,23.04
2022-08-30T07:15:38.430Z,23.20
2022-08-30T07:20:41.753Z,23.07
2022-08-30T07:25:45.088Z,23.15
2022-08-30T07:30:48.382Z,23.04
2022-08-30T07:35:51.789Z,22.70
2022-08-30T07:40:55.407Z,21.54
2022-08-30T07:46:07.502Z,22.33
2022-08-30T07:51:18.621Z,22.79
2022-08-30T07:56:23.399Z,22.74
2022-08-30T08:01:26.578Z,22.55
2022-08-30T08:06:34.696Z,21.39
2022-08-30T08:11:40.991Z,22.46
2022-08-30T08:16:47.063Z,23.13
2022-08-30T08:21:59.393Z,22.51
2022-08-30T08:27:13.744Z,21.38
2022-08-30T08:32:16.963Z,22.14
2022-08-30T08:37:21.491Z,22.37
2022-08-30T08:42:54.809Z,22.37
2022-08-30T08:48:04.440Z,22.46
2022-08-30T08:53:46.085Z,22.47
2022-08-30T08:58:58.340Z,22.80
2022-08-30T09:04:13.284Z,22.95
2022-08-30T09:09:26.293Z,23.10
2022-08-30T09:14:48.166Z,23.34
2022-08-30T09:19:54.550Z,23.48
2022-08-30T09:25:13.355Z,22.02
2022-08-30T09:30:21.255Z,21.56
2022-08-30T09:35:44.330Z,22.86
2022-08-30T09:40:59.014Z,23.35
2022-08-30T09:46:02.147Z,23.52
2022-08-30T09:51:13.131Z,22.35
2022-08-30T09:56:52.560Z,22.56
2022-08-30T10:02:18.299Z,23.34
2022-08-30T10:07:49.798Z,23.76
2022-08-30T10:13:43.442Z,22.81
2022-08-30T10:18:56.831Z,22.55
2022-08-30T10:24:09.799Z,23.71
2022-08-30T10:29:18.622Z,23.97
2022-08-30T10:34:29.268Z,23.38
2022-08-30T10:39:42.453Z,21.54
2022-08-30T10:44:53.489Z,22.58
2022-08-30T10:50:08.064Z,23.48
2022-08-30T10:55:33.535Z,23.99
2022-08-30T11:00:59.467Z,24.33
2022-08-30T11:06:22.097Z,24.63
2022-08-30T11:11:59.019Z,23.25
2022-08-30T11:17:02.616Z,23.13
2022-08-30T11:22:39.011Z,24.04
2022-08-30T11:27:59.420Z,23.65
2022-08-30T11:33:11.656Z,22.48
2022-08-30T11:38:27.024Z,23.34
2022-08-30T11:43:36.703Z,23.72
2022-08-30T11:48:55.735Z,23.64
2022-08-30T11:54:26.725Z,23.63
2022-08-30T12:00:00.673Z,23.78
2022-08-30T12:05:05.251Z,23.79
2022-08-30T12:10:36.475Z,23.72
2022-08-30T12:16:02.171Z,23.70
2022-08-30T12:21:19.846Z,24.00
2022-08-30T12:26:25.069Z,24.15
2022-08-30T12:31:28.712Z,24.09
2022-08-30T12:36:54.045Z,24.44
2022-08-30T12:42:18.155Z,23.90
2022-08-30T12:47:44.909Z,22.85
2022-08-30T12:53:13.050Z,23.99
2022-08-30T12:58:18.523Z,24.08
2022-08-30T13:03:39.288Z,22.35
2022-08-30T13:08:46.298Z,23.11
2022-08-30T13:13:54.022Z,23.84
2022-08-30T13:19:35.446Z,24.09
2022-08-30T13:24:38.638Z,24.27
2022-08-30T13:29:42.095Z,24.35
2022-08-30T13:34:45.777Z,24.23
2022-08-30T13:39:49.560Z,22.88
2022-08-30T13:44:54.414Z,23.79
2022-08-30T13:49:57.922Z,24.43
2022-08-30T13:55:01.233Z,24.66
2022-08-30T14:00:18.309Z,24.28
2022-08-30T14:10:53.815Z,22.85
2022-08-30T14:21:26.623Z,24.52
2022-08-30T14:26:35.520Z,24.86
2022-08-30T14:31:40.919Z,24.42
2022-08-30T14:36:46.622Z,22.48
2022-08-30T14:41:55.319Z,23.41
2022-08-30T14:46:59.482Z,24.50
2022-08-30T14:52:04.320Z,24.92
2022-08-30T14:57:07.334Z,25.32
2022-08-30T15:02:10.359Z,23.78
2022-08-30T15:07:13.913Z,23.70
2022-08-30T15:12:17.226Z,24.79
2022-08-30T15:17:20.367Z,24.42
2022-08-30T15:22:23.640Z,22.94
2022-08-30T15:27:26.850Z,24.14
2022-08-30T15:32:30.125Z,24.92
2022-08-30T15:37:37.710Z,24.97
2022-08-30T15:42:40.729Z,23.01
2022-08-30T15:47:45.565Z,22.44
2022-08-30T15:52:48.562Z,24.02
2022-08-30T15:57:51.635Z,24.52
2022-08-30T16:02:54.653Z,24.66
2022-08-30T16:07:57.709Z,24.72
2022-08-30T16:13:01.889Z,24.13
2022-08-30T16:18:07.090Z,22.68
2022-08-30T16:23:12.838Z,23.97
2022-08-30T16:28:18.020Z,24.54
2022-08-30T16:33:21.458Z,22.54
2022-08-30T16:38:27.743Z,22.00
2022-08-30T16:43:31.151Z,23.60
2022-08-30T16:48:35.989Z,24.15
2022-08-30T16:53:40.819Z,24.41
2022-08-30T16:58:47.000Z,23.83
2022-08-30T17:03:51.948Z,21.73
2022-08-30T17:08:56.089Z,21.59
2022-08-30T17:14:01.610Z,23.54
2022-08-30T17:19:07.603Z,24.39
2022-08-30T17:24:10.889Z,24.22
2022-08-30T17:29:14.062Z,22.06
2022-08-30T17:34:24.139Z,21.58
2022-08-30T17:39:29.921Z,23.16
2022-08-30T17:44:41.965Z,23.80
2022-08-30T17:49:46.038Z,24.03
2022-08-30T17:54:50.908Z,23.31
2022-08-30T17:59:54.110Z,21.08
2022-08-30T18:04:59.133Z,20.59
2022-08-30T18:10:02.347Z,22.11
2022-08-30T18:15:12.135Z,22.75
2022-08-30T18:20:17.740Z,22.93
2022-08-30T18:25:21.584Z,23.14
2022-08-30T18:30:31.149Z,22.48
2022-08-30T18:35:37.785Z,20.29
2022-08-30T18:40:40.985Z,19.99
2022-08-30T18:45:49.007Z,21.84
2022-08-30T18:50:52.225Z,22.72
2022-08-30T18:55:55.810Z,22.29
2022-08-30T19:00:59.138Z,20.21
2022-08-30T19:06:06.914Z,19.87
2022-08-30T19:11:10.984Z,21.81
2022-08-30T19:16:14.480Z,22.69
2022-08-30T19:21:17.813Z,22.35
2022-08-30T19:26:24.281Z,20.45
2022-08-30T19:31:31.337Z,20.23
2022-08-30T19:36:35.203Z,22.08
2022-08-30T19:41:38.921Z,22.82
2022-08-30T19:46:42.159Z,22.36
2022-08-30T19:51:47.147Z,20.21
2022-08-30T19:56:50.523Z,19.90
2022-08-30T20:01:54.835Z,21.92
2022-08-30T20:06:58.146Z,23.22
2022-08-30T20:12:01.559Z,22.85
2022-08-30T20:17:05.074Z,20.66
2022-08-30T20:22:15.373Z,19.20
2022-08-30T20:27:18.757Z,19.54
2022-08-30T20:32:24.745Z,22.19
2022-08-30T20:37:30.006Z,23.28
2022-08-30T20:42:33.295Z,22.79
2022-08-30T20:47:38.873Z,20.50
2022-08-30T20:52:43.193Z,20.11
2022-08-30T20:57:46.409Z,22.28
2022-08-30T21:02:50.691Z,23.00
2022-08-30T21:07:54.151Z,20.84
2022-08-30T21:12:57.504Z,19.09
2022-08-30T21:18:01.078Z,19.25
2022-08-30T21:23:04.728Z,21.62
2022-08-30T21:28:09.038Z,23.01
2022-08-30T21:33:12.252Z,22.69
2022-08-30T21:38:15.968Z,20.35
2022-08-30T21:43:19.176Z,18.85
2022-08-30T21:48:22.383Z,19.24
2022-08-30T21:53:25.589Z,21.91
2022-08-30T21:58:28.818Z,23.07
2022-08-30T22:03:32.015Z,22.03
2022-08-30T22:08:35.944Z,19.94
2022-08-30T22:13:43.162Z,18.59
2022-08-30T22:18:47.786Z,18.85
2022-08-30T22:23:51.346Z,20.74
2022-08-30T22:28:54.968Z,21.69
2022-08-30T22:33:58.630Z,22.25
2022-08-30T22:39:04.535Z,21.71
2022-08-30T22:44:07.812Z,19.52
2022-08-30T22:49:12.458Z,19.16
2022-08-30T22:54:15.700Z,21.13
2022-08-30T22:59:18.976Z,21.90
2022-08-30T23:04:22.205Z,21.45
2022-08-30T23:09:29.282Z,19.17
2022-08-30T23:14:32.615Z,18.88
2022-08-30T23:19:35.798Z,20.86
2022-08-30T23:24:57.644Z,21.78
2022-08-30T23:30:20.005Z,21.25
2022-08-30T23:35:42.156Z,18.84
2022-08-30T23:41:03.797Z,18.84
2022-08-30T23:46:25.348Z,21.35
2022-08-30T23:51:46.975Z,21.97
2022-08-30T23:57:09.334Z,19.82
